createdAt,value
2017-10-16T00:00:53.361Z,14.63
2017-10-16T00:03:20.937Z,14.30
2017-10-16T00:05:48.482Z,13.80
2017-10-16T00:08:16.059Z,14.40
2017-10-16T00:10:43.626Z,15.83
2017-10-16T00:13:11.952Z,14.07
2017-10-16T00:15:39.511Z,14.23
2017-10-16T00:18:07.078Z,15.10
2017-10-16T00:20:34.642Z,14.37
2017-10-16T00:23:02.221Z,13.47
2017-10-16T00:25:29.777Z,14.80
2017-10-16T00:27:57.330Z,15.50
2017-10-16T00:30:24.905Z,14.20
2017-10-16T00:32:52.480Z,13.80
2017-10-16T00:35:20.038Z,14.20
2017-10-16T00:37:48.377Z,13.33
2017-10-16T00:40:15.941Z,15.63
2017-10-16T00:42:43.503Z,14.73
2017-10-16T00:45:11.099Z,13.67
2017-10-16T00:47:39.462Z,14.07
2017-10-16T00:50:07.046Z,14.60
2017-10-16T00:52:35.377Z,14.63
2017-10-16T00:55:02.964Z,14.57
2017-10-16T00:57:31.311Z,14.50
2017-10-16T00:59:58.887Z,14.40
2017-10-16T01:02:26.429Z,14.57
2017-10-16T01:04:53.993Z,14.50
2017-10-16T01:07:21.522Z,14.60
2017-10-16T01:09:49.087Z,13.50
2017-10-16T01:12:16.658Z,15.70
2017-10-16T01:14:44.326Z,15.50
2017-10-16T01:17:11.861Z,14.77
2017-10-16T01:19:40.208Z,15.13
2017-10-16T01:22:07.774Z,13.93
2017-10-16T01:24:36.124Z,13.70
2017-10-16T01:27:03.731Z,14.67
2017-10-16T01:29:32.079Z,15.50
2017-10-16T01:31:59.662Z,14.80
2017-10-16T01:34:28.055Z,15.27
2017-10-16T01:36:55.647Z,14.80
2017-10-16T01:39:23.222Z,14.90
2017-10-16T01:41:50.822Z,14.83
2017-10-16T01:44:19.240Z,13.80
2017-10-16T01:46:46.854Z,14.60
2017-10-16T01:49:14.640Z,15.23
2017-10-16T01:51:42.972Z,15.10
2017-10-16T01:54:10.568Z,14.67
2017-10-16T01:56:38.929Z,14.90
2017-10-16T01:59:06.503Z,13.70
2017-10-16T02:01:34.854Z,13.10
2017-10-16T02:04:02.470Z,15.00
2017-10-16T02:06:30.038Z,14.43
2017-10-16T02:08:57.619Z,14.20
2017-10-16T02:11:25.185Z,14.50
2017-10-16T02:13:52.733Z,14.80
2017-10-16T02:16:21.071Z,15.10
2017-10-16T02:18:49.393Z,15.63
2017-10-16T02:21:16.949Z,15.07
2017-10-16T02:23:44.505Z,15.40
2017-10-16T02:26:12.104Z,16.37
2017-10-16T02:28:39.680Z,16.00
2017-10-16T02:31:08.039Z,16.17
2017-10-16T02:33:35.585Z,16.10
2017-10-16T02:36:03.149Z,16.20
2017-10-16T02:38:30.719Z,16.83
2017-10-16T02:40:58.306Z,16.80
2017-10-16T02:43:26.614Z,15.80
2017-10-16T02:45:54.975Z,16.33
2017-10-16T02:48:22.574Z,17.60
2017-10-16T02:50:50.136Z,17.50
2017-10-16T02:53:17.714Z,18.00
2017-10-16T02:55:45.283Z,17.40
2017-10-16T02:58:12.865Z,17.57
2017-10-16T03:00:41.239Z,16.40
2017-10-16T03:03:09.568Z,17.40
2017-10-16T03:05:37.110Z,15.13
2017-10-16T03:08:04.687Z,15.70
2017-10-16T03:10:33.049Z,15.73
2017-10-16T03:13:00.593Z,15.30
2017-10-16T03:15:28.143Z,15.30
2017-10-16T03:17:56.501Z,14.30
2017-10-16T03:20:24.830Z,15.20
2017-10-16T03:22:52.402Z,13.70
2017-10-16T03:25:19.974Z,14.63
2017-10-16T03:27:47.583Z,13.83
2017-10-16T03:30:15.136Z,13.03
2017-10-16T03:32:43.474Z,14.03
2017-10-16T03:35:11.049Z,13.90
2017-10-16T03:37:38.620Z,13.13
2017-10-16T03:40:06.974Z,12.90
2017-10-16T03:42:34.538Z,13.10
2017-10-16T03:45:02.083Z,12.60
2017-10-16T03:47:29.656Z,12.80
2017-10-16T03:49:57.205Z,13.37
2017-10-16T03:52:24.767Z,14.17
2017-10-16T03:54:52.339Z,14.27
2017-10-16T03:57:19.908Z,12.63
2017-10-16T03:59:47.485Z,12.70
2017-10-16T04:02:15.837Z,13.60
2017-10-16T04:04:43.386Z,13.37
2017-10-16T04:07:10.945Z,13.30
2017-10-16T04:09:38.501Z,13.23
2017-10-16T04:12:06.075Z,11.40
2017-10-16T04:14:33.613Z,12.80
2017-10-16T04:17:01.179Z,13.17
2017-10-16T04:19:28.748Z,13.40
2017-10-16T04:21:56.314Z,13.33
2017-10-16T04:24:23.872Z,13.90
2017-10-16T04:26:51.441Z,14.37
2017-10-16T04:29:18.985Z,15.63
2017-10-16T04:31:46.546Z,15.40
2017-10-16T04:34:14.099Z,14.40
2017-10-16T04:36:41.650Z,14.00
2017-10-16T04:39:09.195Z,12.70
2017-10-16T04:41:36.800Z,14.83
2017-10-16T04:44:04.360Z,13.77
2017-10-16T04:46:31.928Z,14.43
2017-10-16T04:48:59.506Z,14.63
2017-10-16T04:51:27.843Z,14.20
2017-10-16T04:53:55.762Z,14.57
2017-10-16T04:56:23.399Z,14.90
2017-10-16T04:58:50.973Z,13.90
2017-10-16T05:01:19.314Z,15.03
2017-10-16T05:03:46.899Z,14.43
2017-10-16T05:06:14.476Z,13.90
2017-10-16T05:08:42.802Z,14.53
2017-10-16T05:11:10.366Z,13.83
2017-10-16T05:13:37.953Z,14.57
2017-10-16T05:16:05.516Z,14.87
2017-10-16T05:18:33.066Z,13.90
2017-10-16T05:21:00.633Z,14.73
2017-10-16T05:23:28.201Z,15.43
2017-10-16T05:25:56.557Z,14.13
2017-10-16T05:28:24.098Z,15.00
2017-10-16T05:30:51.713Z,14.77
2017-10-16T05:33:20.042Z,14.60
2017-10-16T05:35:47.593Z,14.13
2017-10-16T05:38:15.145Z,16.00
2017-10-16T05:40:42.740Z,16.77
2017-10-16T05:43:10.294Z,15.23
2017-10-16T05:45:37.873Z,15.57
2017-10-16T05:48:05.472Z,16.23
2017-10-16T05:50:33.084Z,16.77
2017-10-16T05:53:00.665Z,15.53
2017-10-16T05:55:28.989Z,15.70
2017-10-16T05:57:56.548Z,18.00
2017-10-16T06:00:24.103Z,16.20
2017-10-16T06:02:51.689Z,16.20
2017-10-16T06:05:19.262Z,16.93
2017-10-16T06:07:46.818Z,16.17
2017-10-16T06:10:14.394Z,15.60
2017-10-16T06:12:41.951Z,16.10
2017-10-16T06:15:09.576Z,16.00
2017-10-16T06:17:37.135Z,15.50
2017-10-16T06:20:04.702Z,16.73
2017-10-16T06:22:32.249Z,14.93
2017-10-16T06:24:59.800Z,15.83
2017-10-16T06:27:27.361Z,15.13
2017-10-16T06:29:54.922Z,15.20
2017-10-16T06:32:22.494Z,15.60
2017-10-16T06:34:50.055Z,16.63
2017-10-16T06:37:17.631Z,18.43
2017-10-16T06:39:45.184Z,17.30
2017-10-16T06:42:12.738Z,15.77
2017-10-16T06:44:40.297Z,16.67
2017-10-16T06:47:07.911Z,16.10
2017-10-16T06:49:36.231Z,16.77
2017-10-16T06:52:03.826Z,16.40
2017-10-16T06:54:31.397Z,16.30
2017-10-16T06:56:59.724Z,15.90
2017-10-16T06:59:27.296Z,15.17
2017-10-16T07:01:54.858Z,15.57
2017-10-16T07:04:22.420Z,15.63
2017-10-16T07:06:49.993Z,13.70
2017-10-16T07:09:17.559Z,15.43
2017-10-16T07:11:45.138Z,14.83
2017-10-16T07:14:13.496Z,15.03
2017-10-16T07:16:41.042Z,20.70
2017-10-16T07:19:08.604Z,53.80
2017-10-16T07:21:36.162Z,44.90
2017-10-16T07:24:03.763Z,20.10
2017-10-16T07:26:32.076Z,16.40
2017-10-16T07:28:59.680Z,16.80
2017-10-16T07:31:27.253Z,16.30
2017-10-16T07:33:55.570Z,15.77
2017-10-16T07:36:23.152Z,14.40
2017-10-16T07:38:50.719Z,14.60
2017-10-16T07:41:18.291Z,15.53
2017-10-16T07:43:45.827Z,13.77
2017-10-16T07:46:13.448Z,12.97
2017-10-16T07:48:41.017Z,14.07
2017-10-16T07:51:08.603Z,13.93
2017-10-16T07:53:36.167Z,14.07
2017-10-16T07:56:03.740Z,12.90
2017-10-16T07:58:31.315Z,13.10
2017-10-16T08:00:58.914Z,12.93
2017-10-16T08:03:26.477Z,12.97
2017-10-16T08:05:54.053Z,12.47
2017-10-16T08:08:21.619Z,13.37
2017-10-16T08:10:49.206Z,14.27
2017-10-16T08:13:16.816Z,13.90
2017-10-16T08:15:44.362Z,13.37
2017-10-16T08:18:12.731Z,12.57
2017-10-16T08:20:41.069Z,13.20
2017-10-16T08:23:08.674Z,12.27
2017-10-16T08:25:37.027Z,11.80
2017-10-16T08:28:04.598Z,17.70
2017-10-16T08:30:32.158Z,16.40
2017-10-16T08:32:59.953Z,13.77
2017-10-16T08:35:28.314Z,12.00
2017-10-16T08:37:56.668Z,12.90
2017-10-16T08:40:24.802Z,11.70
2017-10-16T08:42:53.409Z,12.70
2017-10-16T08:45:21.009Z,11.67
2017-10-16T08:47:49.352Z,12.90
2017-10-16T08:50:16.932Z,12.00
2017-10-16T08:52:44.509Z,12.97
2017-10-16T08:55:13.011Z,12.60
2017-10-16T08:57:40.635Z,12.83
2017-10-16T09:00:08.205Z,13.00
2017-10-16T09:02:35.795Z,12.70
2017-10-16T09:05:03.374Z,13.17
2017-10-16T09:07:30.968Z,13.80
2017-10-16T09:09:58.552Z,12.80
2017-10-16T09:12:26.919Z,26.73
2017-10-16T09:14:54.887Z,14.23
2017-10-16T09:17:23.252Z,11.47
2017-10-16T09:19:50.813Z,13.23
2017-10-16T09:22:18.379Z,13.17
2017-10-16T09:24:45.962Z,13.80
2017-10-16T09:27:13.536Z,13.43
2017-10-16T09:29:41.879Z,13.47
2017-10-16T09:32:09.440Z,12.77
2017-10-16T09:34:37.005Z,12.80
2017-10-16T09:37:04.554Z,13.27
2017-10-16T09:39:32.110Z,12.83
2017-10-16T09:41:59.690Z,13.17
2017-10-16T09:44:27.259Z,13.30
2017-10-16T09:46:54.890Z,14.50
2017-10-16T09:49:22.452Z,12.70
2017-10-16T09:51:50.038Z,12.80
2017-10-16T09:54:17.598Z,13.67
2017-10-16T09:56:45.189Z,13.80
2017-10-16T09:59:14.034Z,13.20
2017-10-16T10:01:41.624Z,12.60
2017-10-16T10:04:09.967Z,14.37
2017-10-16T10:06:37.761Z,12.80
2017-10-16T10:09:05.409Z,13.43
2017-10-16T10:11:32.972Z,11.50
2017-10-16T10:14:00.550Z,11.97
2017-10-16T10:16:28.885Z,12.57
2017-10-16T10:18:56.425Z,13.47
2017-10-16T10:21:23.979Z,33.57
2017-10-16T10:23:51.537Z,17.73
2017-10-16T10:26:19.109Z,13.20
2017-10-16T10:28:46.674Z,12.20
2017-10-16T10:31:14.241Z,11.97
2017-10-16T10:33:41.832Z,12.20
2017-10-16T10:36:09.381Z,12.73
2017-10-16T10:38:36.951Z,12.00
2017-10-16T10:41:04.524Z,12.30
2017-10-16T10:43:32.872Z,11.97
2017-10-16T10:46:00.413Z,12.23
2017-10-16T10:48:28.010Z,11.83
2017-10-16T10:50:55.600Z,12.20
2017-10-16T10:53:23.927Z,11.60
2017-10-16T10:55:51.463Z,10.90
2017-10-16T10:58:19.010Z,11.47
2017-10-16T11:00:46.562Z,10.80
2017-10-16T11:03:14.134Z,11.40
2017-10-16T11:05:42.358Z,10.07
2017-10-16T11:08:10.705Z,10.70
2017-10-16T11:10:38.494Z,10.23
2017-10-16T11:13:06.066Z,10.20
2017-10-16T11:15:33.647Z,10.00
2017-10-16T11:18:02.004Z,10.87
2017-10-16T11:20:29.585Z,9.63
2017-10-16T11:22:57.909Z,9.13
2017-10-16T11:25:25.526Z,9.77
2017-10-16T11:27:53.870Z,8.70
2017-10-16T11:30:21.402Z,8.70
2017-10-16T11:32:48.970Z,8.30
2017-10-16T11:35:16.616Z,12.57
2017-10-16T11:37:44.235Z,9.47
2017-10-16T11:40:11.825Z,8.80
2017-10-16T11:42:39.401Z,8.60
2017-10-16T11:45:06.995Z,8.80
2017-10-16T11:47:34.556Z,8.77
2017-10-16T11:50:02.148Z,8.70
2017-10-16T11:52:30.466Z,9.00
2017-10-16T11:54:58.820Z,8.50
2017-10-16T11:57:26.415Z,8.67
2017-10-16T11:59:54.011Z,8.43
2017-10-16T12:02:21.599Z,8.23
2017-10-16T12:04:49.220Z,7.70
2017-10-16T12:07:16.806Z,8.30
2017-10-16T12:09:45.181Z,7.77
2017-10-16T12:12:13.564Z,11.47
2017-10-16T12:14:41.914Z,7.63
2017-10-16T12:17:09.484Z,7.70
2017-10-16T12:19:37.047Z,7.50
2017-10-16T12:22:04.745Z,6.90
2017-10-16T12:24:32.317Z,7.47
2017-10-16T12:26:59.909Z,7.50
2017-10-16T12:29:27.467Z,7.33
2017-10-16T12:31:55.025Z,7.00
2017-10-16T12:34:22.596Z,7.07
2017-10-16T12:36:50.153Z,7.00
2017-10-16T12:39:17.757Z,6.43
2017-10-16T12:41:46.091Z,6.97
2017-10-16T12:44:13.646Z,6.87
2017-10-16T12:46:41.202Z,7.60
2017-10-16T12:49:08.762Z,7.27
2017-10-16T12:51:36.338Z,7.03
2017-10-16T12:54:03.969Z,7.80
2017-10-16T12:56:31.549Z,7.93
2017-10-16T12:58:59.093Z,7.30
2017-10-16T13:01:26.653Z,7.37
2017-10-16T13:03:54.232Z,7.13
2017-10-16T13:06:21.830Z,7.80
2017-10-16T13:08:50.190Z,7.13
2017-10-16T13:11:17.760Z,7.47
2017-10-16T13:13:46.084Z,7.43
2017-10-16T13:16:13.653Z,7.33
2017-10-16T13:18:41.267Z,7.30
2017-10-16T13:21:09.594Z,6.20
2017-10-16T13:23:37.158Z,7.40
2017-10-16T13:26:04.740Z,6.53
2017-10-16T13:28:32.316Z,6.57
2017-10-16T13:31:00.652Z,7.17
2017-10-16T13:33:28.252Z,7.50
2017-10-16T13:35:55.800Z,6.90
2017-10-16T13:38:23.435Z,7.10
2017-10-16T13:40:50.987Z,6.70
2017-10-16T13:43:18.559Z,6.93
2017-10-16T13:45:46.154Z,7.80
2017-10-16T13:48:13.726Z,8.03
2017-10-16T13:50:42.132Z,6.67
2017-10-16T13:53:09.706Z,7.50
2017-10-16T13:55:37.293Z,7.67
2017-10-16T13:58:04.899Z,7.23
2017-10-16T14:00:33.238Z,7.20
2017-10-16T14:03:00.824Z,6.70
2017-10-16T14:05:29.140Z,7.20
2017-10-16T14:07:56.716Z,7.10
2017-10-16T14:10:24.266Z,7.17
2017-10-16T14:12:51.868Z,6.97
2017-10-16T14:15:19.468Z,7.17
2017-10-16T14:17:47.041Z,6.60
2017-10-16T14:20:14.759Z,7.30
2017-10-16T14:22:42.322Z,7.60
2017-10-16T14:25:10.703Z,7.23
2017-10-16T14:27:39.041Z,7.20
2017-10-16T14:30:06.574Z,6.80
2017-10-16T14:32:34.180Z,7.00
2017-10-16T14:35:01.738Z,7.00
2017-10-16T14:37:29.334Z,7.57
2017-10-16T14:40:00.457Z,7.37
2017-10-16T14:42:31.244Z,7.20
2017-10-16T14:44:59.595Z,7.60
2017-10-16T14:47:29.831Z,7.67
2017-10-16T14:49:59.108Z,7.20
2017-10-16T14:52:30.990Z,7.20
2017-10-16T14:54:58.569Z,7.53
2017-10-16T14:57:27.956Z,7.90
2017-10-16T14:59:57.301Z,8.03
2017-10-16T15:02:26.781Z,8.10
2017-10-16T15:04:54.427Z,7.53
2017-10-16T15:07:23.997Z,8.03
2017-10-16T15:09:51.591Z,8.07
2017-10-16T15:12:19.169Z,7.63
2017-10-16T15:14:46.769Z,7.90
2017-10-16T15:17:14.382Z,8.20
2017-10-16T15:19:42.594Z,8.33
2017-10-16T15:22:10.177Z,8.20
2017-10-16T15:24:37.739Z,8.20
2017-10-16T15:27:05.309Z,8.63
2017-10-16T15:29:33.678Z,7.67
2017-10-16T15:32:01.242Z,8.30
2017-10-16T15:34:29.546Z,8.70
2017-10-16T15:36:57.257Z,9.00
2017-10-16T15:39:26.168Z,9.43
2017-10-16T15:41:53.797Z,10.60
2017-10-16T15:44:21.381Z,13.07
2017-10-16T15:46:49.050Z,14.23
2017-10-16T15:49:16.715Z,14.80
2017-10-16T15:51:45.060Z,14.23
2017-10-16T15:54:12.638Z,14.87
2017-10-16T15:56:40.243Z,12.63
2017-10-16T15:59:08.618Z,12.63
2017-10-16T16:01:37.127Z,11.03
2017-10-16T16:04:04.726Z,10.03
2017-10-16T16:06:32.318Z,10.83
2017-10-16T16:09:00.700Z,10.40
2017-10-16T16:11:29.026Z,10.33
2017-10-16T16:13:56.612Z,11.40
2017-10-16T16:16:24.195Z,10.60
2017-10-16T16:18:52.572Z,11.67
2017-10-16T16:21:20.922Z,10.87
2017-10-16T16:23:48.516Z,10.67
2017-10-16T16:26:17.193Z,10.90
2017-10-16T16:28:44.790Z,11.30
2017-10-16T16:31:13.477Z,11.60
2017-10-16T16:33:41.071Z,11.90
2017-10-16T16:36:08.670Z,11.60
2017-10-16T16:38:36.264Z,13.30
2017-10-16T16:41:03.819Z,11.37
2017-10-16T16:43:31.410Z,11.67
2017-10-16T16:45:58.970Z,11.90
2017-10-16T16:48:27.284Z,11.57
2017-10-16T16:50:54.854Z,11.40
2017-10-16T16:53:23.197Z,11.70
2017-10-16T16:55:51.694Z,11.67
2017-10-16T16:58:19.262Z,11.70
2017-10-16T17:00:46.846Z,12.27
2017-10-16T17:03:15.230Z,13.30
2017-10-16T17:05:43.553Z,12.23
2017-10-16T17:08:11.121Z,12.67
2017-10-16T17:10:38.727Z,13.30
2017-10-16T17:13:07.069Z,12.10
2017-10-16T17:15:34.614Z,13.60
2017-10-16T17:18:02.186Z,14.40
2017-10-16T17:20:29.817Z,14.50
2017-10-16T17:22:57.394Z,14.13
2017-10-16T17:25:24.986Z,13.43
2017-10-16T17:27:52.576Z,13.00
2017-10-16T17:30:20.159Z,13.03
2017-10-16T17:32:47.718Z,13.73
2017-10-16T17:35:15.285Z,27.27
2017-10-16T17:37:42.872Z,22.07
2017-10-16T17:40:10.466Z,18.70
2017-10-16T17:42:38.844Z,16.00
2017-10-16T17:45:08.352Z,14.70
2017-10-16T17:47:35.983Z,14.30
2017-10-16T17:55:16.553Z,14.27
2017-10-16T17:57:44.511Z,15.07
2017-10-16T18:03:27.409Z,15.87
2017-10-16T18:05:55.734Z,16.30
2017-10-16T18:08:23.320Z,16.07
2017-10-16T18:10:54.300Z,18.40
2017-10-16T18:13:23.766Z,29.33
2017-10-16T18:15:55.718Z,18.77
2017-10-16T18:18:26.128Z,16.93
2017-10-16T18:20:55.533Z,16.13
2017-10-16T18:23:26.621Z,16.03
2017-10-16T18:25:55.070Z,16.37
2017-10-16T18:28:28.541Z,16.37
2017-10-16T18:30:56.129Z,14.60
2017-10-16T18:36:11.979Z,15.27
2017-10-16T18:38:40.349Z,15.73
2017-10-16T18:41:08.718Z,14.73
2017-10-16T18:43:36.298Z,14.47
2017-10-16T18:46:04.667Z,14.70
2017-10-16T18:48:32.261Z,14.70
2017-10-16T18:50:59.861Z,13.37
2017-10-16T18:53:27.434Z,13.80
2017-10-16T18:55:55.000Z,16.43
2017-10-16T18:58:22.615Z,14.77
2017-10-16T19:00:50.183Z,14.60
2017-10-16T19:03:17.757Z,14.30
2017-10-16T19:05:45.327Z,14.37
2017-10-16T19:08:12.911Z,15.83
2017-10-16T19:10:41.286Z,15.83
2017-10-16T19:13:08.970Z,14.37
2017-10-16T19:15:37.341Z,15.30
2017-10-16T19:18:05.716Z,15.00
2017-10-16T19:20:33.598Z,14.80
2017-10-16T19:23:01.980Z,14.80
2017-10-16T19:25:30.405Z,14.53
2017-10-16T19:27:59.149Z,14.43
2017-10-16T19:30:27.539Z,15.13
2017-10-16T19:32:55.102Z,15.30
2017-10-16T19:35:22.701Z,15.80
2017-10-16T19:37:50.273Z,15.60
2017-10-16T19:40:17.966Z,39.07
2017-10-16T19:42:46.342Z,28.07
2017-10-16T19:45:14.691Z,18.23
2017-10-16T19:47:42.274Z,15.50
2017-10-16T19:50:10.657Z,15.37
2017-10-16T19:52:39.016Z,17.57
2017-10-16T19:55:06.582Z,16.10
2017-10-16T19:57:34.176Z,17.63
2017-10-16T20:00:01.773Z,16.87
2017-10-16T20:02:29.365Z,16.17
2017-10-16T20:04:56.976Z,15.03
2017-10-16T20:07:24.602Z,15.33
2017-10-16T20:09:53.017Z,15.90
2017-10-16T20:12:20.628Z,16.33
2017-10-16T20:14:48.212Z,19.00
2017-10-16T20:17:16.578Z,31.63
2017-10-16T20:19:44.951Z,24.20
2017-10-16T20:22:13.463Z,18.67
2017-10-16T20:24:41.022Z,17.97
2017-10-16T20:27:09.380Z,17.23
2017-10-16T20:29:37.727Z,16.37
2017-10-16T20:32:05.301Z,16.13
2017-10-16T20:34:32.882Z,16.80
2017-10-16T20:37:01.206Z,15.97
2017-10-16T20:39:28.793Z,16.00
2017-10-16T20:41:56.414Z,15.73
2017-10-16T20:44:23.981Z,15.80
2017-10-16T20:46:52.584Z,16.10
2017-10-16T20:49:20.194Z,15.93
2017-10-16T20:51:48.556Z,14.90
2017-10-16T20:54:16.126Z,16.63
2017-10-16T20:56:44.456Z,18.93
2017-10-16T20:59:12.044Z,17.97
2017-10-16T21:01:39.653Z,18.83
2017-10-16T21:04:07.242Z,18.10
2017-10-16T21:06:34.811Z,17.60
2017-10-16T21:09:02.389Z,17.27
2017-10-16T21:11:29.970Z,17.40
2017-10-16T21:13:58.327Z,17.60
2017-10-16T21:16:26.698Z,17.53
2017-10-16T21:18:54.281Z,18.83
2017-10-16T21:21:22.612Z,17.63
2017-10-16T21:23:50.185Z,17.83
2017-10-16T21:26:17.758Z,18.43
2017-10-16T21:28:45.372Z,17.40
2017-10-16T21:31:12.920Z,16.83
2017-10-16T21:33:40.527Z,16.50
2017-10-16T21:36:08.102Z,15.70
2017-10-16T21:38:35.720Z,17.00
2017-10-16T21:41:03.277Z,17.17
2017-10-16T21:43:31.625Z,17.43
2017-10-16T21:45:59.969Z,16.80
2017-10-16T21:48:27.564Z,17.43
2017-10-16T21:50:55.897Z,17.07
2017-10-16T21:53:23.488Z,17.00
2017-10-16T21:55:51.066Z,17.43
2017-10-16T21:58:19.437Z,16.73
2017-10-16T22:00:47.778Z,17.73
2017-10-16T22:03:15.346Z,18.03
2017-10-16T22:05:42.938Z,16.73
2017-10-16T22:08:11.254Z,16.87
2017-10-16T22:10:38.830Z,17.73
2017-10-16T22:13:06.404Z,17.27
2017-10-16T22:15:33.974Z,17.73
2017-10-16T22:18:01.541Z,15.70
2017-10-16T22:20:29.112Z,16.77
2017-10-16T22:22:57.455Z,16.03
2017-10-16T22:25:25.041Z,15.87
2017-10-16T22:27:52.601Z,16.20
2017-10-16T22:30:20.171Z,16.00
2017-10-16T22:32:48.508Z,15.63
2017-10-16T22:35:16.085Z,16.40
2017-10-16T22:37:43.680Z,16.17
2017-10-16T22:40:12.025Z,16.73
2017-10-16T22:42:39.580Z,16.27
2017-10-16T22:45:07.252Z,16.03
2017-10-16T22:47:34.844Z,16.60
2017-10-16T22:50:03.183Z,16.90
2017-10-16T22:52:30.766Z,16.13
2017-10-16T22:54:59.151Z,15.97
2017-10-16T22:57:27.505Z,16.10
2017-10-16T22:59:55.081Z,15.60
2017-10-16T23:02:23.434Z,16.90
2017-10-16T23:04:51.026Z,16.60
2017-10-16T23:07:19.385Z,15.60
2017-10-16T23:09:46.928Z,15.40
2017-10-16T23:12:14.531Z,16.50
2017-10-16T23:14:42.867Z,16.10
2017-10-16T23:17:10.490Z,15.67
2017-10-16T23:19:38.090Z,15.90
2017-10-16T23:22:05.658Z,15.10
2017-10-16T23:24:33.237Z,15.20
2017-10-16T23:27:01.668Z,14.80
2017-10-16T23:29:29.248Z,14.20
2017-10-16T23:31:56.812Z,16.63
2017-10-16T23:34:24.374Z,16.10
2017-10-16T23:36:51.968Z,16.77
2017-10-16T23:39:20.347Z,15.67
2017-10-16T23:41:48.721Z,15.73
2017-10-16T23:44:16.321Z,15.97
2017-10-16T23:46:43.924Z,17.20
2017-10-16T23:49:11.513Z,15.90
2017-10-16T23:51:39.890Z,16.90
2017-10-16T23:54:08.237Z,16.53
2017-10-16T23:56:35.799Z,16.43
2017-10-16T23:59:03.392Z,16.90
